sensor_id;sensor_type;location;lat;lon;timestamp;temperature;humidity
16781;DHT22;8507;50.056;8.248;2022-09-02T00:00:24;18.10;99.90
16781;DHT22;8507;50.056;8.248;2022-09-02T00:02:49;18.10;99.90
16781;DHT22;8507;50.056;8.248;2022-09-02T00:05:16;18.10;99.90
16781;DHT22;8507;50.056;8.248;2022-09-02T00:07:42;18.00;99.90
16781;DHT22;8507;50.056;8.248;2022-09-02T00:10:08;18.00;99.90
16781;DHT22;8507;50.056;8.248;2022-09-02T00:12:34;18.00;99.90
16781;DHT22;8507;50.056;8.248;2022-09-02T00:14:59;18.00;99.90
16781;DHT22;8507;50.056;8.248;2022-09-02T00:17:25;18.00;99.90
16781;DHT22;8507;50.056;8.248;2022-09-02T00:19:51;18.10;99.90
16781;DHT22;8507;50.056;8.248;2022-09-02T00:22:18;18.10;99.90
16781;DHT22;8507;50.056;8.248;2022-09-02T00:24:44;18.10;99.90
16781;DHT22;8507;50.056;8.248;2022-09-02T00:27:09;18.10;99.90
16781;DHT22;8507;50.056;8.248;2022-09-02T00:29:35;18.00;99.90
16781;DHT22;8507;50.056;8.248;2022-09-02T00:32:00;17.90;99.90
16781;DHT22;8507;50.056;8.248;2022-09-02T00:34:26;17.80;99.90
16781;DHT22;8507;50.056;8.248;2022-09-02T00:36:52;17.80;99.90
16781;DHT22;8507;50.056;8.248;2022-09-02T00:39:18;17.80;99.90
16781;DHT22;8507;50.056;8.248;2022-09-02T00:41:44;17.80;99.90
16781;DHT22;8507;50.056;8.248;2022-09-02T00:44:13;17.80;99.90
16781;DHT22;8507;50.056;8.248;2022-09-02T00:46:39;17.80;99.90
16781;DHT22;8507;50.056;8.248;2022-09-02T00:51:36;17.70;99.90
16781;DHT22;8507;50.056;8.248;2022-09-02T00:54:03;17.70;99.90
16781;DHT22;8507;50.056;8.248;2022-09-02T00:56:30;17.60;99.90
16781;DHT22;8507;50.056;8.248;2022-09-02T00:58:57;17.50;99.90
16781;DHT22;8507;50.056;8.248;2022-09-02T01:01:24;17.50;99.90
16781;DHT22;8507;50.056;8.248;2022-09-02T01:03:50;17.40;99.90
16781;DHT22;8507;50.056;8.248;2022-09-02T01:06:19;17.40;99.90
16781;DHT22;8507;50.056;8.248;2022-09-02T01:08:50;17.30;99.90
16781;DHT22;8507;50.056;8.248;2022-09-02T01:11:19;17.20;99.90
16781;DHT22;8507;50.056;8.248;2022-09-02T01:13:45;17.20;99.90
16781;DHT22;8507;50.056;8.248;2022-09-02T01:16:14;17.20;99.90
16781;DHT22;8507;50.056;8.248;2022-09-02T01:18:45;17.20;99.90
16781;DHT22;8507;50.056;8.248;2022-09-02T01:21:12;17.20;99.90
16781;DHT22;8507;50.056;8.248;2022-09-02T01:23:38;17.30;99.90
16781;DHT22;8507;50.056;8.248;2022-09-02T01:26:04;17.30;99.90
16781;DHT22;8507;50.056;8.248;2022-09-02T01:28:31;17.20;99.90
16781;DHT22;8507;50.056;8.248;2022-09-02T01:30:58;17.10;99.90
16781;DHT22;8507;50.056;8.248;2022-09-02T01:33:24;17.10;99.90
16781;DHT22;8507;50.056;8.248;2022-09-02T01:35:50;17.00;99.90
16781;DHT22;8507;50.056;8.248;2022-09-02T01:38:17;17.00;99.90
16781;DHT22;8507;50.056;8.248;2022-09-02T01:40:42;17.00;99.90
16781;DHT22;8507;50.056;8.248;2022-09-02T01:43:12;17.00;99.90
16781;DHT22;8507;50.056;8.248;2022-09-02T01:45:40;17.00;99.90
16781;DHT22;8507;50.056;8.248;2022-09-02T01:48:07;17.00;99.90
16781;DHT22;8507;50.056;8.248;2022-09-02T01:50:36;16.90;99.90
16781;DHT22;8507;50.056;8.248;2022-09-02T01:53:01;16.90;99.90
16781;DHT22;8507;50.056;8.248;2022-09-02T01:55:29;16.90;99.90
16781;DHT22;8507;50.056;8.248;2022-09-02T01:57:54;16.90;99.90
16781;DHT22;8507;50.056;8.248;2022-09-02T02:00:20;16.80;99.90
16781;DHT22;8507;50.056;8.248;2022-09-02T02:02:46;16.80;99.90
16781;DHT22;8507;50.056;8.248;2022-09-02T02:05:12;16.70;99.90
16781;DHT22;8507;50.056;8.248;2022-09-02T02:07:38;16.70;99.90
16781;DHT22;8507;50.056;8.248;2022-09-02T02:10:05;16.70;99.90
16781;DHT22;8507;50.056;8.248;2022-09-02T02:12:32;16.80;99.90
16781;DHT22;8507;50.056;8.248;2022-09-02T02:15:00;16.80;99.90
16781;DHT22;8507;50.056;8.248;2022-09-02T02:17:26;16.80;99.90
16781;DHT22;8507;50.056;8.248;2022-09-02T02:19:52;16.70;99.90
16781;DHT22;8507;50.056;8.248;2022-09-02T02:22:17;16.70;99.90
16781;DHT22;8507;50.056;8.248;2022-09-02T02:24:43;16.60;99.90
16781;DHT22;8507;50.056;8.248;2022-09-02T02:27:08;16.60;99.90
16781;DHT22;8507;50.056;8.248;2022-09-02T02:29:34;16.60;99.90
16781;DHT22;8507;50.056;8.248;2022-09-02T02:31:59;16.60;99.90
16781;DHT22;8507;50.056;8.248;2022-09-02T02:34:25;16.60;99.90
16781;DHT22;8507;50.056;8.248;2022-09-02T02:36:50;16.50;99.90
16781;DHT22;8507;50.056;8.248;2022-09-02T02:39:16;16.50;99.90
16781;DHT22;8507;50.056;8.248;2022-09-02T02:41:42;16.50;99.90
16781;DHT22;8507;50.056;8.248;2022-09-02T02:44:08;16.40;99.90
16781;DHT22;8507;50.056;8.248;2022-09-02T02:46:34;16.40;99.90
16781;DHT22;8507;50.056;8.248;2022-09-02T02:49:01;16.40;99.90
16781;DHT22;8507;50.056;8.248;2022-09-02T02:51:27;16.40;99.90
16781;DHT22;8507;50.056;8.248;2022-09-02T02:53:53;16.40;99.90
16781;DHT22;8507;50.056;8.248;2022-09-02T02:56:19;16.30;99.90
16781;DHT22;8507;50.056;8.248;2022-09-02T02:58:44;16.30;99.90
16781;DHT22;8507;50.056;8.248;2022-09-02T03:01:10;16.30;99.90
16781;DHT22;8507;50.056;8.248;2022-09-02T03:03:36;16.30;99.90
16781;DHT22;8507;50.056;8.248;2022-09-02T03:06:01;16.30;99.90
16781;DHT22;8507;50.056;8.248;2022-09-02T03:08:27;16.30;99.90
16781;DHT22;8507;50.056;8.248;2022-09-02T03:10:54;16.30;99.90
16781;DHT22;8507;50.056;8.248;2022-09-02T03:13:21;16.30;99.90
16781;DHT22;8507;50.056;8.248;2022-09-02T03:15:48;16.20;99.90
16781;DHT22;8507;50.056;8.248;2022-09-02T03:18:14;16.30;99.90
16781;DHT22;8507;50.056;8.248;2022-09-02T03:20:40;16.20;99.90
16781;DHT22;8507;50.056;8.248;2022-09-02T03:23:06;16.20;99.90
16781;DHT22;8507;50.056;8.248;2022-09-02T03:25:34;16.20;99.90
16781;DHT22;8507;50.056;8.248;2022-09-02T03:28:01;16.20;99.90
16781;DHT22;8507;50.056;8.248;2022-09-02T03:30:28;16.10;99.90
16781;DHT22;8507;50.056;8.248;2022-09-02T03:32:56;16.10;99.90
16781;DHT22;8507;50.056;8.248;2022-09-02T03:35:23;16.20;99.90
16781;DHT22;8507;50.056;8.248;2022-09-02T03:37:50;16.20;99.90
16781;DHT22;8507;50.056;8.248;2022-09-02T03:40:19;16.10;99.90
16781;DHT22;8507;50.056;8.248;2022-09-02T03:42:45;16.20;99.90
16781;DHT22;8507;50.056;8.248;2022-09-02T03:45:12;16.10;99.90
16781;DHT22;8507;50.056;8.248;2022-09-02T03:47:40;16.10;99.90
16781;DHT22;8507;50.056;8.248;2022-09-02T03:50:10;16.10;99.90
16781;DHT22;8507;50.056;8.248;2022-09-02T03:52:36;16.10;99.90
16781;DHT22;8507;50.056;8.248;2022-09-02T03:55:03;16.10;99.90
16781;DHT22;8507;50.056;8.248;2022-09-02T03:57:29;16.10;99.90
16781;DHT22;8507;50.056;8.248;2022-09-02T03:59:55;16.20;99.90
16781;DHT22;8507;50.056;8.248;2022-09-02T04:02:20;16.20;99.90
16781;DHT22;8507;50.056;8.248;2022-09-02T04:04:46;16.30;99.90
16781;DHT22;8507;50.056;8.248;2022-09-02T04:07:12;16.30;99.90
16781;DHT22;8507;50.056;8.248;2022-09-02T04:09:37;16.30;99.90
16781;DHT22;8507;50.056;8.248;2022-09-02T04:12:04;16.30;99.90
16781;DHT22;8507;50.056;8.248;2022-09-02T04:14:31;16.30;99.90
16781;DHT22;8507;50.056;8.248;2022-09-02T04:16:57;16.30;99.90
16781;DHT22;8507;50.056;8.248;2022-09-02T04:19:22;16.20;99.90
16781;DHT22;8507;50.056;8.248;2022-09-02T04:21:48;16.30;99.90
16781;DHT22;8507;50.056;8.248;2022-09-02T04:24:13;16.30;99.90
16781;DHT22;8507;50.056;8.248;2022-09-02T04:26:39;16.30;99.90
16781;DHT22;8507;50.056;8.248;2022-09-02T04:29:04;16.30;99.90
16781;DHT22;8507;50.056;8.248;2022-09-02T04:31:32;16.30;99.90
16781;DHT22;8507;50.056;8.248;2022-09-02T04:33:58;16.30;99.90
16781;DHT22;8507;50.056;8.248;2022-09-02T04:36:25;16.30;99.90
16781;DHT22;8507;50.056;8.248;2022-09-02T04:38:52;16.30;99.90
16781;DHT22;8507;50.056;8.248;2022-09-02T04:41:24;16.30;99.90
16781;DHT22;8507;50.056;8.248;2022-09-02T04:43:51;16.20;99.90
16781;DHT22;8507;50.056;8.248;2022-09-02T04:46:17;16.30;99.90
16781;DHT22;8507;50.056;8.248;2022-09-02T04:48:44;16.20;99.90
16781;DHT22;8507;50.056;8.248;2022-09-02T04:51:13;16.30;99.90
16781;DHT22;8507;50.056;8.248;2022-09-02T04:53:40;16.30;99.90
16781;DHT22;8507;50.056;8.248;2022-09-02T04:56:07;16.30;99.90
16781;DHT22;8507;50.056;8.248;2022-09-02T04:58:33;16.20;99.90
16781;DHT22;8507;50.056;8.248;2022-09-02T05:01:08;16.30;99.90
16781;DHT22;8507;50.056;8.248;2022-09-02T05:03:35;16.40;99.90
16781;DHT22;8507;50.056;8.248;2022-09-02T05:06:03;16.40;99.90
16781;DHT22;8507;50.056;8.248;2022-09-02T05:08:29;16.40;99.90
16781;DHT22;8507;50.056;8.248;2022-09-02T05:10:55;16.40;99.90
16781;DHT22;8507;50.056;8.248;2022-09-02T05:13:21;16.40;99.90
16781;DHT22;8507;50.056;8.248;2022-09-02T05:15:48;16.50;99.90
16781;DHT22;8507;50.056;8.248;2022-09-02T05:18:14;16.50;99.90
16781;DHT22;8507;50.056;8.248;2022-09-02T05:20:40;16.50;99.90
16781;DHT22;8507;50.056;8.248;2022-09-02T05:23:08;16.50;99.90
16781;DHT22;8507;50.056;8.248;2022-09-02T05:25:37;16.50;99.90
16781;DHT22;8507;50.056;8.248;2022-09-02T05:28:03;16.50;99.90
16781;DHT22;8507;50.056;8.248;2022-09-02T05:30:28;16.50;99.90
16781;DHT22;8507;50.056;8.248;2022-09-02T05:32:54;16.50;99.90
16781;DHT22;8507;50.056;8.248;2022-09-02T05:35:20;16.50;99.90
16781;DHT22;8507;50.056;8.248;2022-09-02T05:37:45;16.50;99.90
16781;DHT22;8507;50.056;8.248;2022-09-02T05:40:11;16.60;99.90
16781;DHT22;8507;50.056;8.248;2022-09-02T05:42:38;16.70;99.90
16781;DHT22;8507;50.056;8.248;2022-09-02T05:45:04;16.80;99.90
16781;DHT22;8507;50.056;8.248;2022-09-02T05:47:32;16.90;99.90
16781;DHT22;8507;50.056;8.248;2022-09-02T05:49:58;17.00;99.90
16781;DHT22;8507;50.056;8.248;2022-09-02T05:52:26;17.00;99.90
16781;DHT22;8507;50.056;8.248;2022-09-02T05:54:51;17.00;99.90
16781;DHT22;8507;50.056;8.248;2022-09-02T05:57:18;17.00;99.90
16781;DHT22;8507;50.056;8.248;2022-09-02T05:59:43;17.20;99.90
16781;DHT22;8507;50.056;8.248;2022-09-02T06:02:10;17.30;99.90
16781;DHT22;8507;50.056;8.248;2022-09-02T06:04:43;17.30;99.90
16781;DHT22;8507;50.056;8.248;2022-09-02T06:07:09;17.40;99.90
16781;DHT22;8507;50.056;8.248;2022-09-02T06:09:35;17.40;99.90
16781;DHT22;8507;50.056;8.248;2022-09-02T06:12:01;17.40;99.90
16781;DHT22;8507;50.056;8.248;2022-09-02T06:14:26;17.50;99.90
16781;DHT22;8507;50.056;8.248;2022-09-02T06:16:54;17.50;99.90
16781;DHT22;8507;50.056;8.248;2022-09-02T06:19:20;17.60;99.90
16781;DHT22;8507;50.056;8.248;2022-09-02T06:21:47;17.60;99.90
16781;DHT22;8507;50.056;8.248;2022-09-02T06:24:13;17.70;99.90
16781;DHT22;8507;50.056;8.248;2022-09-02T06:26:40;17.90;99.90
16781;DHT22;8507;50.056;8.248;2022-09-02T06:29:07;17.90;99.90
16781;DHT22;8507;50.056;8.248;2022-09-02T06:31:33;17.80;99.90
16781;DHT22;8507;50.056;8.248;2022-09-02T06:33:59;17.70;99.90
16781;DHT22;8507;50.056;8.248;2022-09-02T06:36:26;17.80;99.90
16781;DHT22;8507;50.056;8.248;2022-09-02T06:38:54;17.90;99.90
16781;DHT22;8507;50.056;8.248;2022-09-02T06:41:23;18.10;99.90
16781;DHT22;8507;50.056;8.248;2022-09-02T06:43:51;18.10;99.90
16781;DHT22;8507;50.056;8.248;2022-09-02T06:46:19;18.20;99.90
16781;DHT22;8507;50.056;8.248;2022-09-02T06:48:45;18.20;99.90
16781;DHT22;8507;50.056;8.248;2022-09-02T06:51:21;18.10;99.90
16781;DHT22;8507;50.056;8.248;2022-09-02T06:53:47;18.20;99.90
16781;DHT22;8507;50.056;8.248;2022-09-02T06:56:12;18.40;99.90
16781;DHT22;8507;50.056;8.248;2022-09-02T06:58:38;18.70;99.90
16781;DHT22;8507;50.056;8.248;2022-09-02T07:01:04;18.50;99.90
16781;DHT22;8507;50.056;8.248;2022-09-02T07:03:29;18.40;99.90
16781;DHT22;8507;50.056;8.248;2022-09-02T07:06:13;18.50;99.90
16781;DHT22;8507;50.056;8.248;2022-09-02T07:08:41;18.70;99.90
16781;DHT22;8507;50.056;8.248;2022-09-02T07:11:19;18.40;99.90
16781;DHT22;8507;50.056;8.248;2022-09-02T07:13:46;18.50;99.90
16781;DHT22;8507;50.056;8.248;2022-09-02T07:16:12;18.50;99.90
16781;DHT22;8507;50.056;8.248;2022-09-02T07:18:38;18.60;99.90
16781;DHT22;8507;50.056;8.248;2022-09-02T07:21:04;18.60;99.90
16781;DHT22;8507;50.056;8.248;2022-09-02T07:23:29;18.90;99.90
16781;DHT22;8507;50.056;8.248;2022-09-02T07:25:55;18.60;99.90
16781;DHT22;8507;50.056;8.248;2022-09-02T07:28:21;18.70;99.90
16781;DHT22;8507;50.056;8.248;2022-09-02T07:30:47;18.70;99.90
16781;DHT22;8507;50.056;8.248;2022-09-02T07:33:13;18.80;99.90
16781;DHT22;8507;50.056;8.248;2022-09-02T07:35:43;18.90;99.90
16781;DHT22;8507;50.056;8.248;2022-09-02T07:38:09;19.20;99.90
16781;DHT22;8507;50.056;8.248;2022-09-02T07:40:37;19.20;99.90
16781;DHT22;8507;50.056;8.248;2022-09-02T07:43:05;19.80;99.90
16781;DHT22;8507;50.056;8.248;2022-09-02T07:45:31;20.10;99.90
16781;DHT22;8507;50.056;8.248;2022-09-02T07:47:57;20.10;99.90
16781;DHT22;8507;50.056;8.248;2022-09-02T07:50:23;20.30;99.90
16781;DHT22;8507;50.056;8.248;2022-09-02T07:52:53;20.30;99.90
16781;DHT22;8507;50.056;8.248;2022-09-02T07:55:19;20.50;99.90
16781;DHT22;8507;50.056;8.248;2022-09-02T07:57:46;20.80;99.90
16781;DHT22;8507;50.056;8.248;2022-09-02T08:00:13;21.00;99.90
16781;DHT22;8507;50.056;8.248;2022-09-02T08:02:38;21.00;99.90
16781;DHT22;8507;50.056;8.248;2022-09-02T08:05:04;21.00;99.90
16781;DHT22;8507;50.056;8.248;2022-09-02T08:07:30;20.50;99.90
16781;DHT22;8507;50.056;8.248;2022-09-02T08:09:55;20.30;99.90
16781;DHT22;8507;50.056;8.248;2022-09-02T08:12:21;20.20;99.90
16781;DHT22;8507;50.056;8.248;2022-09-02T08:14:46;20.80;99.90
16781;DHT22;8507;50.056;8.248;2022-09-02T08:17:12;20.80;99.90
16781;DHT22;8507;50.056;8.248;2022-09-02T08:19:37;21.10;99.90
16781;DHT22;8507;50.056;8.248;2022-09-02T08:22:04;21.30;99.90
16781;DHT22;8507;50.056;8.248;2022-09-02T08:24:31;21.40;99.90
16781;DHT22;8507;50.056;8.248;2022-09-02T08:26:57;21.40;99.90
16781;DHT22;8507;50.056;8.248;2022-09-02T08:29:22;21.80;99.90
16781;DHT22;8507;50.056;8.248;2022-09-02T08:31:48;21.80;99.90
16781;DHT22;8507;50.056;8.248;2022-09-02T08:34:13;21.50;99.90
16781;DHT22;8507;50.056;8.248;2022-09-02T08:36:39;21.70;99.90
16781;DHT22;8507;50.056;8.248;2022-09-02T08:39:08;21.50;99.90
16781;DHT22;8507;50.056;8.248;2022-09-02T08:41:48;21.70;99.90
16781;DHT22;8507;50.056;8.248;2022-09-02T08:44:22;22.00;99.90
16781;DHT22;8507;50.056;8.248;2022-09-02T08:46:57;21.50;99.90
16781;DHT22;8507;50.056;8.248;2022-09-02T08:49:30;21.40;99.90
16781;DHT22;8507;50.056;8.248;2022-09-02T08:52:00;21.20;99.90
16781;DHT22;8507;50.056;8.248;2022-09-02T08:54:35;21.10;99.90
16781;DHT22;8507;50.056;8.248;2022-09-02T08:57:01;21.30;99.90
16781;DHT22;8507;50.056;8.248;2022-09-02T08:59:29;21.40;99.90
16781;DHT22;8507;50.056;8.248;2022-09-02T09:02:17;21.20;99.90
16781;DHT22;8507;50.056;8.248;2022-09-02T09:13:14;22.60;99.90
16781;DHT22;8507;50.056;8.248;2022-09-02T09:15:54;22.70;99.90
16781;DHT22;8507;50.056;8.248;2022-09-02T09:18:32;22.90;99.90
16781;DHT22;8507;50.056;8.248;2022-09-02T09:20:59;23.00;99.90
16781;DHT22;8507;50.056;8.248;2022-09-02T09:23:30;23.20;99.90
16781;DHT22;8507;50.056;8.248;2022-09-02T09:26:10;23.50;99.90
16781;DHT22;8507;50.056;8.248;2022-09-02T09:28:44;23.70;99.90
16781;DHT22;8507;50.056;8.248;2022-09-02T09:31:13;23.50;99.90
16781;DHT22;8507;50.056;8.248;2022-09-02T09:34:03;23.60;99.90
16781;DHT22;8507;50.056;8.248;2022-09-02T09:41:47;23.70;99.90
16781;DHT22;8507;50.056;8.248;2022-09-02T09:47:17;23.80;99.90
16781;DHT22;8507;50.056;8.248;2022-09-02T09:50:09;23.40;99.90
16781;DHT22;8507;50.056;8.248;2022-09-02T09:52:32;22.80;99.90
16781;DHT22;8507;50.056;8.248;2022-09-02T09:55:27;23.10;99.90
16781;DHT22;8507;50.056;8.248;2022-09-02T09:58:07;23.20;99.90
16781;DHT22;8507;50.056;8.248;2022-09-02T10:00:33;23.90;99.90
16781;DHT22;8507;50.056;8.248;2022-09-02T10:03:01;24.30;99.90
16781;DHT22;8507;50.056;8.248;2022-09-02T10:08:06;24.90;99.90
16781;DHT22;8507;50.056;8.248;2022-09-02T10:10:56;24.90;99.90
16781;DHT22;8507;50.056;8.248;2022-09-02T10:13:33;25.20;99.90
16781;DHT22;8507;50.056;8.248;2022-09-02T10:18:55;24.60;99.90
16781;DHT22;8507;50.056;8.248;2022-09-02T10:26:47;23.80;99.90
16781;DHT22;8507;50.056;8.248;2022-09-02T10:37:25;25.40;99.90
16781;DHT22;8507;50.056;8.248;2022-09-02T10:43:06;25.20;99.90
16781;DHT22;8507;50.056;8.248;2022-09-02T10:48:31;26.00;99.90
16781;DHT22;8507;50.056;8.248;2022-09-02T10:56:20;24.30;99.90
16781;DHT22;8507;50.056;8.248;2022-09-02T10:58:58;24.40;99.90
16781;DHT22;8507;50.056;8.248;2022-09-02T11:01:50;24.30;99.90
16781;DHT22;8507;50.056;8.248;2022-09-02T11:04:29;24.30;99.90
16781;DHT22;8507;50.056;8.248;2022-09-02T11:06:57;24.90;99.90
16781;DHT22;8507;50.056;8.248;2022-09-02T11:09:31;25.40;99.90
16781;DHT22;8507;50.056;8.248;2022-09-02T11:12:13;25.30;99.90
16781;DHT22;8507;50.056;8.248;2022-09-02T11:15:09;25.60;99.90
16781;DHT22;8507;50.056;8.248;2022-09-02T11:20:52;26.20;99.90
16781;DHT22;8507;50.056;8.248;2022-09-02T11:23:40;26.30;99.90
16781;DHT22;8507;50.056;8.248;2022-09-02T11:26:15;26.00;99.90
16781;DHT22;8507;50.056;8.248;2022-09-02T11:28:59;25.20;99.90
16781;DHT22;8507;50.056;8.248;2022-09-02T11:37:02;26.60;99.90
16781;DHT22;8507;50.056;8.248;2022-09-02T11:50:48;25.70;99.90
16781;DHT22;8507;50.056;8.248;2022-09-02T11:53:35;26.00;99.90
16781;DHT22;8507;50.056;8.248;2022-09-02T11:56:15;25.90;99.90
16781;DHT22;8507;50.056;8.248;2022-09-02T11:58:50;26.50;99.90
16781;DHT22;8507;50.056;8.248;2022-09-02T12:01:27;26.10;99.90
16781;DHT22;8507;50.056;8.248;2022-09-02T12:04:17;26.10;99.90
16781;DHT22;8507;50.056;8.248;2022-09-02T12:09:46;25.20;99.90
16781;DHT22;8507;50.056;8.248;2022-09-02T12:17:37;25.00;99.90
16781;DHT22;8507;50.056;8.248;2022-09-02T12:20:04;25.50;99.90
16781;DHT22;8507;50.056;8.248;2022-09-02T12:22:36;25.00;99.90
16781;DHT22;8507;50.056;8.248;2022-09-02T12:27:48;25.80;99.90
16781;DHT22;8507;50.056;8.248;2022-09-02T12:33:35;26.50;99.90
16781;DHT22;8507;50.056;8.248;2022-09-02T12:36:01;26.80;99.90
16781;DHT22;8507;50.056;8.248;2022-09-02T12:38:33;26.80;99.90
16781;DHT22;8507;50.056;8.248;2022-09-02T12:41:19;25.70;99.90
16781;DHT22;8507;50.056;8.248;2022-09-02T12:50:11;25.40;99.90
16781;DHT22;8507;50.056;8.248;2022-09-02T12:52:44;25.50;99.90
16781;DHT22;8507;50.056;8.248;2022-09-02T12:57:46;26.10;99.90
16781;DHT22;8507;50.056;8.248;2022-09-02T13:00:30;25.30;99.90
16781;DHT22;8507;50.056;8.248;2022-09-02T13:06:02;25.70;99.90
16781;DHT22;8507;50.056;8.248;2022-09-02T13:14:18;25.30;99.90
16781;DHT22;8507;50.056;8.248;2022-09-02T13:22:35;26.20;99.90
16781;DHT22;8507;50.056;8.248;2022-09-02T13:25:35;25.80;99.90
16781;DHT22;8507;50.056;8.248;2022-09-02T13:31:26;25.70;99.90
16781;DHT22;8507;50.056;8.248;2022-09-02T13:34:03;25.60;99.90
16781;DHT22;8507;50.056;8.248;2022-09-02T13:36:49;25.40;99.90
16781;DHT22;8507;50.056;8.248;2022-09-02T13:39:18;25.40;99.90
16781;DHT22;8507;50.056;8.248;2022-09-02T13:41:45;25.30;99.90
16781;DHT22;8507;50.056;8.248;2022-09-02T13:44:19;25.10;99.90
16781;DHT22;8507;50.056;8.248;2022-09-02T13:46:51;25.10;99.90
16781;DHT22;8507;50.056;8.248;2022-09-02T13:49:26;25.50;99.90
16781;DHT22;8507;50.056;8.248;2022-09-02T13:51:54;25.80;99.90
16781;DHT22;8507;50.056;8.248;2022-09-02T13:54:35;25.50;99.90
16781;DHT22;8507;50.056;8.248;2022-09-02T13:57:04;25.70;99.90
16781;DHT22;8507;50.056;8.248;2022-09-02T13:59:39;25.50;99.90
16781;DHT22;8507;50.056;8.248;2022-09-02T14:02:34;25.40;99.90
16781;DHT22;8507;50.056;8.248;2022-09-02T14:05:05;25.60;99.90
16781;DHT22;8507;50.056;8.248;2022-09-02T14:07:36;26.10;99.90
16781;DHT22;8507;50.056;8.248;2022-09-02T14:10:05;25.90;99.90
16781;DHT22;8507;50.056;8.248;2022-09-02T14:12:32;25.70;99.90
16781;DHT22;8507;50.056;8.248;2022-09-02T14:14:59;25.40;99.90
16781;DHT22;8507;50.056;8.248;2022-09-02T14:17:26;25.80;99.90
16781;DHT22;8507;50.056;8.248;2022-09-02T14:22:35;26.40;99.90
16781;DHT22;8507;50.056;8.248;2022-09-02T14:25:35;26.50;99.90
16781;DHT22;8507;50.056;8.248;2022-09-02T14:28:07;26.00;99.90
16781;DHT22;8507;50.056;8.248;2022-09-02T14:30:39;26.30;99.90
16781;DHT22;8507;50.056;8.248;2022-09-02T14:36:00;26.30;99.90
16781;DHT22;8507;50.056;8.248;2022-09-02T14:38:28;26.30;99.90
16781;DHT22;8507;50.056;8.248;2022-09-02T14:41:19;26.60;99.90
16781;DHT22;8507;50.056;8.248;2022-09-02T14:43:52;26.50;99.90
16781;DHT22;8507;50.056;8.248;2022-09-02T14:46:27;26.00;99.90
16781;DHT22;8507;50.056;8.248;2022-09-02T14:51:37;25.60;99.90
16781;DHT22;8507;50.056;8.248;2022-09-02T14:54:04;25.80;99.90
16781;DHT22;8507;50.056;8.248;2022-09-02T14:56:50;25.70;99.90
16781;DHT22;8507;50.056;8.248;2022-09-02T14:59:17;25.70;99.90
16781;DHT22;8507;50.056;8.248;2022-09-02T15:01:46;25.60;99.90
16781;DHT22;8507;50.056;8.248;2022-09-02T15:04:12;25.70;99.90
16781;DHT22;8507;50.056;8.248;2022-09-02T15:06:39;25.70;99.90
16781;DHT22;8507;50.056;8.248;2022-09-02T15:09:04;25.50;99.90
16781;DHT22;8507;50.056;8.248;2022-09-02T15:11:30;25.40;99.90
16781;DHT22;8507;50.056;8.248;2022-09-02T15:13:56;25.00;99.90
16781;DHT22;8507;50.056;8.248;2022-09-02T15:16:21;25.10;99.90
16781;DHT22;8507;50.056;8.248;2022-09-02T15:18:47;25.50;99.90
16781;DHT22;8507;50.056;8.248;2022-09-02T15:21:12;25.60;99.90
16781;DHT22;8507;50.056;8.248;2022-09-02T15:23:39;25.40;99.90
16781;DHT22;8507;50.056;8.248;2022-09-02T15:26:05;25.60;99.90
16781;DHT22;8507;50.056;8.248;2022-09-02T15:28:30;25.50;99.90
16781;DHT22;8507;50.056;8.248;2022-09-02T15:30:58;25.40;99.90
16781;DHT22;8507;50.056;8.248;2022-09-02T15:33:23;25.30;99.90
16781;DHT22;8507;50.056;8.248;2022-09-02T15:35:49;25.10;99.90
16781;DHT22;8507;50.056;8.248;2022-09-02T15:38:15;25.40;99.90
16781;DHT22;8507;50.056;8.248;2022-09-02T15:40:41;25.50;99.90
16781;DHT22;8507;50.056;8.248;2022-09-02T15:43:09;25.30;99.90
16781;DHT22;8507;50.056;8.248;2022-09-02T15:45:44;25.50;99.90
16781;DHT22;8507;50.056;8.248;2022-09-02T15:48:11;25.20;99.90
16781;DHT22;8507;50.056;8.248;2022-09-02T15:50:37;25.20;99.90
16781;DHT22;8507;50.056;8.248;2022-09-02T15:53:03;25.30;99.90
16781;DHT22;8507;50.056;8.248;2022-09-02T15:55:32;25.20;99.90
16781;DHT22;8507;50.056;8.248;2022-09-02T15:57:58;24.90;99.90
16781;DHT22;8507;50.056;8.248;2022-09-02T16:00:24;25.00;99.90
16781;DHT22;8507;50.056;8.248;2022-09-02T16:02:51;25.00;99.90
16781;DHT22;8507;50.056;8.248;2022-09-02T16:05:16;24.70;99.90
16781;DHT22;8507;50.056;8.248;2022-09-02T16:07:42;25.00;99.90
16781;DHT22;8507;50.056;8.248;2022-09-02T16:10:08;25.10;99.90
16781;DHT22;8507;50.056;8.248;2022-09-02T16:12:34;24.80;99.90
16781;DHT22;8507;50.056;8.248;2022-09-02T16:15:00;25.00;99.90
16781;DHT22;8507;50.056;8.248;2022-09-02T16:17:25;25.20;99.90
16781;DHT22;8507;50.056;8.248;2022-09-02T16:19:51;25.30;99.90
16781;DHT22;8507;50.056;8.248;2022-09-02T16:22:18;25.20;99.90
16781;DHT22;8507;50.056;8.248;2022-09-02T16:24:43;24.90;99.90
16781;DHT22;8507;50.056;8.248;2022-09-02T16:27:09;25.10;99.90
16781;DHT22;8507;50.056;8.248;2022-09-02T16:29:35;25.30;99.90
16781;DHT22;8507;50.056;8.248;2022-09-02T16:32:02;25.00;99.90
16781;DHT22;8507;50.056;8.248;2022-09-02T16:34:28;24.90;99.90
16781;DHT22;8507;50.056;8.248;2022-09-02T16:36:53;24.90;99.90
16781;DHT22;8507;50.056;8.248;2022-09-02T16:39:19;24.70;99.90
16781;DHT22;8507;50.056;8.248;2022-09-02T16:41:48;25.00;99.90
16781;DHT22;8507;50.056;8.248;2022-09-02T16:44:17;24.90;99.90
16781;DHT22;8507;50.056;8.248;2022-09-02T16:46:44;24.90;99.90
16781;DHT22;8507;50.056;8.248;2022-09-02T16:49:12;25.20;99.90
16781;DHT22;8507;50.056;8.248;2022-09-02T16:51:38;25.20;99.90
16781;DHT22;8507;50.056;8.248;2022-09-02T16:54:06;25.20;99.90
16781;DHT22;8507;50.056;8.248;2022-09-02T16:56:31;25.20;99.90
16781;DHT22;8507;50.056;8.248;2022-09-02T16:59:01;25.00;99.90
16781;DHT22;8507;50.056;8.248;2022-09-02T17:01:28;24.70;99.90
16781;DHT22;8507;50.056;8.248;2022-09-02T17:03:53;24.70;99.90
16781;DHT22;8507;50.056;8.248;2022-09-02T17:06:19;24.70;99.90
16781;DHT22;8507;50.056;8.248;2022-09-02T17:08:45;24.80;99.90
16781;DHT22;8507;50.056;8.248;2022-09-02T17:13:36;24.40;99.90
16781;DHT22;8507;50.056;8.248;2022-09-02T17:16:02;24.30;99.90
16781;DHT22;8507;50.056;8.248;2022-09-02T17:18:27;24.10;99.90
16781;DHT22;8507;50.056;8.248;2022-09-02T17:21:14;24.10;99.90
16781;DHT22;8507;50.056;8.248;2022-09-02T17:23:41;24.10;99.90
16781;DHT22;8507;50.056;8.248;2022-09-02T17:26:07;24.00;99.90
16781;DHT22;8507;50.056;8.248;2022-09-02T17:28:32;23.90;99.90
16781;DHT22;8507;50.056;8.248;2022-09-02T17:30:58;23.80;99.90
16781;DHT22;8507;50.056;8.248;2022-09-02T17:33:24;23.50;99.90
16781;DHT22;8507;50.056;8.248;2022-09-02T17:35:56;23.50;99.90
16781;DHT22;8507;50.056;8.248;2022-09-02T17:38:22;23.30;99.90
16781;DHT22;8507;50.056;8.248;2022-09-02T17:40:47;23.20;99.90
16781;DHT22;8507;50.056;8.248;2022-09-02T17:43:31;23.20;99.90
16781;DHT22;8507;50.056;8.248;2022-09-02T17:46:07;23.00;99.90
16781;DHT22;8507;50.056;8.248;2022-09-02T17:48:33;22.90;99.90
16781;DHT22;8507;50.056;8.248;2022-09-02T17:50:59;22.80;99.90
16781;DHT22;8507;50.056;8.248;2022-09-02T17:53:25;22.70;99.90
16781;DHT22;8507;50.056;8.248;2022-09-02T17:55:55;22.60;99.90